Time;durP1;ratioP1;P1;durP2;ratioP2;P2;SDS_P1;SDS_P2;PMS_P1;PMS_P2;Temp;Humidity;BMP_temperature;BMP_pressure;BME280_temperature;BME280_humidity;BME280_pressure;Samples;Min_cycle;Max_cycle;Signal;HPM_P1;HPM_P2
2023/04/28 00:01:14;;;;;;;2.90;0.93;;;;;;;;;;5010696;28;20071;-61
2023/04/28 00:03:40;;;;;;;2.25;0.80;;;;;;;;;;5008005;28;21084;-59
2023/04/28 00:06:07;;;;;;;5.82;0.93;;;;;;;;;;5008868;28;20048;-58
2023/04/28 00:08:34;;;;;;;2.60;0.75;;;;;;;;;;5008427;28;20049;-59
2023/04/28 00:11:01;;;;;;;3.50;0.88;;;;;;;;;;5007339;28;20042;-58
2023/04/28 00:13:27;;;;;;;4.32;0.88;;;;;;;;;;5007747;28;20462;-57
2023/04/28 00:15:55;;;;;;;3.63;0.90;;;;;;;;;;5010735;28;20121;-57
2023/04/28 00:18:21;;;;;;;4.25;0.70;;;;;;;;;;5007310;28;20029;-57
2023/04/28 00:20:48;;;;;;;2.15;0.60;;;;;;;;;;5009147;28;20113;-56
2023/04/28 00:23:15;;;;;;;2.20;0.63;;;;;;;;;;5009350;28;20220;-57
2023/04/28 00:25:42;;;;;;;3.05;1.00;;;;;;;;;;5008352;28;20042;-56
2023/04/28 00:28:08;;;;;;;4.00;1.13;;;;;;;;;;5010906;28;20052;-60
2023/04/28 00:30:35;;;;;;;4.00;1.02;;;;;;;;;;5006836;28;20044;-59
2023/04/28 00:33:02;;;;;;;3.95;0.90;;;;;;;;;;5025241;28;20038;-60
2023/04/28 00:35:28;;;;;;;3.25;0.80;;;;;;;;;;5008876;28;20034;-60
2023/04/28 00:37:55;;;;;;;3.38;0.90;;;;;;;;;;5009220;28;20609;-60
2023/04/28 00:40:22;;;;;;;3.10;0.82;;;;;;;;;;5006697;28;20139;-61
2023/04/28 00:42:48;;;;;;;5.75;0.95;;;;;;;;;;5008948;28;20166;-60
2023/04/28 00:45:15;;;;;;;2.50;0.75;;;;;;;;;;5009035;28;20049;-59
2023/04/28 00:47:42;;;;;;;3.58;1.00;;;;;;;;;;5008196;28;20068;-59
2023/04/28 00:50:09;;;;;;;2.85;0.82;;;;;;;;;;5007822;28;20053;-59
2023/04/28 00:52:36;;;;;;;3.88;0.80;;;;;;;;;;5008242;28;20048;-60
2023/04/28 00:55:03;;;;;;;2.65;0.88;;;;;;;;;;5010610;28;20047;-61
2023/04/28 00:57:31;;;;;;;2.75;0.88;;;;;;;;;;5007998;28;20902;-62
2023/04/28 00:59:58;;;;;;;3.88;1.00;;;;;;;;;;5010987;28;20087;-61
2023/04/28 01:02:25;;;;;;;3.42;1.00;;;;;;;;;;5012849;28;20057;-61
2023/04/28 01:04:53;;;;;;;3.03;0.90;;;;;;;;;;5008173;28;20041;-61
2023/04/28 01:07:20;;;;;;;3.95;1.10;;;;;;;;;;5009255;28;20044;-60
2023/04/28 01:09:47;;;;;;;3.00;1.00;;;;;;;;;;5008499;28;20057;-60
2023/04/28 01:12:13;;;;;;;3.90;0.90;;;;;;;;;;5011216;28;20029;-58
2023/04/28 01:14:40;;;;;;;2.70;0.75;;;;;;;;;;5010132;28;20130;-60
2023/04/28 01:17:07;;;;;;;2.63;0.98;;;;;;;;;;5009257;28;20045;-61
2023/04/28 01:19:34;;;;;;;2.50;0.70;;;;;;;;;;5026639;28;20766;-59
2023/04/28 01:22:01;;;;;;;2.35;0.77;;;;;;;;;;5026453;28;20065;-60
2023/04/28 01:24:28;;;;;;;2.28;0.70;;;;;;;;;;5008562;28;20095;-59
2023/04/28 01:26:55;;;;;;;7.45;0.82;;;;;;;;;;5009164;28;20078;-60
2023/04/28 01:29:21;;;;;;;4.07;1.45;;;;;;;;;;5007260;28;20045;-61
2023/04/28 01:31:48;;;;;;;3.10;1.02;;;;;;;;;;5007990;28;20041;-61
2023/04/28 01:34:15;;;;;;;5.07;0.82;;;;;;;;;;5008458;28;20046;-62
2023/04/28 01:36:41;;;;;;;2.97;0.68;;;;;;;;;;5006709;28;20034;-60
2023/04/28 01:39:08;;;;;;;2.88;0.80;;;;;;;;;;5006211;28;20045;-60
2023/04/28 01:41:34;;;;;;;3.42;1.02;;;;;;;;;;5004299;28;20045;-60
2023/04/28 01:44:01;;;;;;;5.70;0.90;;;;;;;;;;5007594;28;20393;-62
2023/04/28 01:46:28;;;;;;;2.90;0.70;;;;;;;;;;5006777;28;20146;-59
2023/04/28 01:48:55;;;;;;;5.25;0.93;;;;;;;;;;5007937;28;20053;-63
2023/04/28 01:51:21;;;;;;;8.45;3.95;;;;;;;;;;5011379;28;20544;-62
2023/04/28 01:53:48;;;;;;;4.13;1.20;;;;;;;;;;5005578;28;20037;-60
2023/04/28 01:56:15;;;;;;;5.60;0.75;;;;;;;;;;5007629;28;20149;-61
2023/04/28 01:58:41;;;;;;;4.95;0.95;;;;;;;;;;5008322;28;20085;-60
2023/04/28 02:01:08;;;;;;;7.90;1.13;;;;;;;;;;5006452;28;20403;-60
2023/04/28 02:03:35;;;;;;;6.15;1.00;;;;;;;;;;5022360;28;20554;-57
2023/04/28 02:06:02;;;;;;;2.58;0.85;;;;;;;;;;5006683;28;20042;-59
2023/04/28 02:08:29;;;;;;;2.63;0.80;;;;;;;;;;5006817;28;20141;-59
2023/04/28 02:10:56;;;;;;;2.45;0.70;;;;;;;;;;5007170;28;20048;-57
2023/04/28 02:13:23;;;;;;;3.50;1.02;;;;;;;;;;5007546;28;20044;-59
2023/04/28 02:15:50;;;;;;;4.68;1.25;;;;;;;;;;5009239;28;20068;-56
2023/04/28 02:18:17;;;;;;;3.35;0.80;;;;;;;;;;5007110;28;20123;-56
2023/04/28 02:20:43;;;;;;;5.93;0.80;;;;;;;;;;5006824;28;20055;-58
2023/04/28 02:23:10;;;;;;;4.65;1.00;;;;;;;;;;5008724;28;20058;-56
2023/04/28 02:25:37;;;;;;;3.22;0.90;;;;;;;;;;5007382;28;20218;-57
2023/04/28 02:28:03;;;;;;;4.70;1.10;;;;;;;;;;5008767;28;20087;-55
2023/04/28 02:30:31;;;;;;;4.40;1.30;;;;;;;;;;5005433;28;20050;-52
2023/04/28 02:32:58;;;;;;;5.28;1.40;;;;;;;;;;5010490;28;20068;-56
2023/04/28 02:35:25;;;;;;;5.28;1.27;;;;;;;;;;5007644;28;20133;-59
2023/04/28 02:37:51;;;;;;;6.68;1.10;;;;;;;;;;5008476;28;20080;-56
2023/04/28 02:40:18;;;;;;;6.45;1.20;;;;;;;;;;5006893;28;20683;-57
2023/04/28 02:42:45;;;;;;;3.53;0.80;;;;;;;;;;5007849;28;20038;-54
2023/04/28 02:45:12;;;;;;;10.30;1.20;;;;;;;;;;5007362;28;20044;-56
2023/04/28 02:47:38;;;;;;;5.53;1.15;;;;;;;;;;5007941;28;20042;-56
2023/04/28 02:50:05;;;;;;;9.13;1.20;;;;;;;;;;5005980;28;20733;-56
2023/04/28 02:52:32;;;;;;;4.10;1.10;;;;;;;;;;5007122;28;20038;-56
2023/04/28 02:54:59;;;;;;;5.93;1.10;;;;;;;;;;5005468;28;20040;-58
2023/04/28 02:57:25;;;;;;;5.18;1.10;;;;;;;;;;5007567;28;20053;-57
2023/04/28 02:59:52;;;;;;;7.82;1.42;;;;;;;;;;5022890;28;20426;-60
2023/04/28 03:02:21;;;;;;;2.90;0.80;;;;;;;;;;5007377;28;20104;-58
2023/04/28 03:04:48;;;;;;;5.85;1.30;;;;;;;;;;4989471;28;20068;-56
2023/04/28 03:07:14;;;;;;;4.72;1.40;;;;;;;;;;4993373;28;20080;-59
2023/04/28 03:09:41;;;;;;;8.05;1.33;;;;;;;;;;4990985;28;20046;-61
2023/04/28 03:12:08;;;;;;;2.65;0.93;;;;;;;;;;4992517;28;20038;-56
2023/04/28 03:14:35;;;;;;;6.25;1.48;;;;;;;;;;4989675;28;21213;-58
2023/04/28 03:17:02;;;;;;;4.00;1.00;;;;;;;;;;4993132;28;20498;-57
2023/04/28 03:19:28;;;;;;;10.95;1.40;;;;;;;;;;4991035;28;20034;-58
2023/04/28 03:21:55;;;;;;;5.85;1.30;;;;;;;;;;4990915;28;20038;-55
2023/04/28 03:24:22;;;;;;;3.55;1.00;;;;;;;;;;5008729;28;20046;-55
2023/04/28 03:26:49;;;;;;;5.35;1.20;;;;;;;;;;5010989;28;20038;-57
2023/04/28 03:29:16;;;;;;;6.50;1.13;;;;;;;;;;5011046;28;20571;-57
2023/04/28 03:31:42;;;;;;;8.38;1.60;;;;;;;;;;5009993;28;20054;-55
2023/04/28 03:34:09;;;;;;;4.78;0.93;;;;;;;;;;5011219;28;20707;-55
2023/04/28 03:36:36;;;;;;;4.25;1.35;;;;;;;;;;5009390;28;20042;-56
2023/04/28 03:39:03;;;;;;;7.47;1.27;;;;;;;;;;5026950;28;20598;-55
2023/04/28 03:41:30;;;;;;;4.45;1.33;;;;;;;;;;5009054;28;20054;-57
2023/04/28 03:43:56;;;;;;;5.28;1.20;;;;;;;;;;5011224;28;20038;-59
2023/04/28 03:46:23;;;;;;;10.00;2.10;;;;;;;;;;5009968;28;20067;-58
2023/04/28 03:49:10;;;;;;;9.57;2.05;;;;;;;;;;5006647;28;21679;-61
2023/04/28 03:51:36;;;;;;;6.20;2.00;;;;;;;;;;5006836;28;20074;-59
2023/04/28 03:54:03;;;;;;;7.80;2.42;;;;;;;;;;5006902;28;20579;-58
2023/04/28 03:56:30;;;;;;;7.03;1.98;;;;;;;;;;5006192;28;20133;-57
2023/04/28 03:58:56;;;;;;;5.47;2.08;;;;;;;;;;5006413;28;20068;-59
2023/04/28 04:01:23;;;;;;;10.30;1.92;;;;;;;;;;5004760;28;20057;-56
2023/04/28 04:03:50;;;;;;;9.90;1.77;;;;;;;;;;5006974;28;20047;-57
2023/04/28 04:06:17;;;;;;;8.60;1.70;;;;;;;;;;5007566;28;20080;-60
2023/04/28 04:08:43;;;;;;;4.50;1.52;;;;;;;;;;4990907;28;20146;-59
2023/04/28 04:11:10;;;;;;;11.50;1.90;;;;;;;;;;5009459;28;20782;-60
2023/04/28 04:13:37;;;;;;;7.20;1.90;;;;;;;;;;5007114;28;20078;-55
2023/04/28 04:16:04;;;;;;;7.03;2.10;;;;;;;;;;5006158;28;20048;-57
2023/04/28 04:18:30;;;;;;;6.68;1.50;;;;;;;;;;5010373;28;20103;-61
2023/04/28 04:20:57;;;;;;;5.03;1.20;;;;;;;;;;4997088;28;20052;-59
2023/04/28 04:23:25;;;;;;;7.43;1.60;;;;;;;;;;5010645;28;20088;-58
2023/04/28 04:25:51;;;;;;;5.70;1.20;;;;;;;;;;5008985;28;20113;-60
2023/04/28 04:28:18;;;;;;;4.50;1.30;;;;;;;;;;5010594;28;20191;-58
2023/04/28 04:30:45;;;;;;;5.05;1.10;;;;;;;;;;5011182;28;20076;-57
2023/04/28 04:33:11;;;;;;;5.50;1.02;;;;;;;;;;5027734;28;20931;-60
2023/04/28 04:35:38;;;;;;;4.75;1.00;;;;;;;;;;5010303;28;20044;-57
2023/04/28 04:38:06;;;;;;;8.60;1.33;;;;;;;;;;5010820;28;20029;-58
2023/04/28 04:40:33;;;;;;;5.25;1.40;;;;;;;;;;5008454;28;20692;-57
2023/04/28 04:42:59;;;;;;;9.73;1.70;;;;;;;;;;5008138;28;20537;-57
2023/04/28 04:45:26;;;;;;;8.38;1.50;;;;;;;;;;5008046;28;20041;-57
2023/04/28 04:47:53;;;;;;;5.40;1.40;;;;;;;;;;5007436;28;20038;-58
2023/04/28 04:50:19;;;;;;;5.60;1.55;;;;;;;;;;5006136;28;20064;-57
2023/04/28 04:52:46;;;;;;;7.32;1.42;;;;;;;;;;5007199;28;21981;-55
2023/04/28 04:55:13;;;;;;;8.40;1.75;;;;;;;;;;5008230;28;20033;-58
2023/04/28 04:57:40;;;;;;;11.30;2.10;;;;;;;;;;5007502;28;20033;-59
2023/04/28 05:00:06;;;;;;;5.68;1.40;;;;;;;;;;5021903;28;20111;-57
2023/04/28 05:02:33;;;;;;;4.10;1.40;;;;;;;;;;5011256;28;20037;-57
2023/04/28 05:05:00;;;;;;;5.70;1.35;;;;;;;;;;5010012;28;20038;-58
2023/04/28 05:07:27;;;;;;;4.78;1.45;;;;;;;;;;5016560;28;20040;-56
2023/04/28 05:09:53;;;;;;;7.25;1.70;;;;;;;;;;5030441;28;21008;-57
2023/04/28 05:12:20;;;;;;;9.82;1.77;;;;;;;;;;5008274;28;20041;-63
2023/04/28 05:14:47;;;;;;;7.88;1.50;;;;;;;;;;5021367;28;20125;-58
2023/04/28 05:17:13;;;;;;;5.68;1.10;;;;;;;;;;5008495;28;20092;-57
2023/04/28 05:19:40;;;;;;;4.82;1.40;;;;;;;;;;5007372;28;20593;-55
2023/04/28 05:22:07;;;;;;;7.78;1.50;;;;;;;;;;5009713;28;20056;-59
2023/04/28 05:24:33;;;;;;;5.97;2.03;;;;;;;;;;5008075;28;20081;-57
2023/04/28 05:27:01;;;;;;;12.55;2.53;;;;;;;;;;5013299;28;21743;-59
2023/04/28 05:29:27;;;;;;;12.32;4.15;;;;;;;;;;5026385;28;20065;-59
2023/04/28 05:31:54;;;;;;;18.08;6.18;;;;;;;;;;5010566;28;20037;-58
2023/04/28 05:34:21;;;;;;;13.70;5.78;;;;;;;;;;5007738;28;20091;-61
2023/04/28 05:36:47;;;;;;;6.78;2.75;;;;;;;;;;5009146;28;20148;-58
2023/04/28 05:39:14;;;;;;;5.70;1.70;;;;;;;;;;5006694;28;20128;-57
2023/04/28 05:41:41;;;;;;;8.85;2.00;;;;;;;;;;5007164;28;20058;-55
2023/04/28 05:44:08;;;;;;;3.90;1.40;;;;;;;;;;5011776;28;20053;-59
2023/04/28 05:46:34;;;;;;;7.45;1.83;;;;;;;;;;5021986;28;20168;-55
2023/04/28 05:49:02;;;;;;;5.88;1.40;;;;;;;;;;5005420;28;20057;-57
2023/04/28 05:51:28;;;;;;;8.45;1.20;;;;;;;;;;5005929;28;20107;-57
2023/04/28 05:53:55;;;;;;;6.45;1.40;;;;;;;;;;5008676;28;20048;-58
2023/04/28 05:56:22;;;;;;;5.80;1.55;;;;;;;;;;5005637;28;20125;-57
2023/04/28 05:58:49;;;;;;;7.72;1.77;;;;;;;;;;5006628;28;20394;-55
2023/04/28 06:01:16;;;;;;;6.57;1.60;;;;;;;;;;5005839;28;20060;-59
2023/04/28 06:03:43;;;;;;;3.75;1.30;;;;;;;;;;5008248;28;20041;-59
2023/04/28 06:06:10;;;;;;;4.43;1.27;;;;;;;;;;5009941;28;20380;-57
2023/04/28 06:08:40;;;;;;;5.43;1.52;;;;;;;;;;5007736;28;20951;-59
2023/04/28 06:11:07;;;;;;;7.45;1.27;;;;;;;;;;5004167;28;20076;-58
2023/04/28 06:13:34;;;;;;;5.82;1.40;;;;;;;;;;5010082;28;20092;-58
2023/04/28 06:16:01;;;;;;;3.80;1.15;;;;;;;;;;5013804;28;20034;-57
2023/04/28 06:18:31;;;;;;;3.55;1.30;;;;;;;;;;5013108;28;20049;-60
2023/04/28 06:20:58;;;;;;;5.72;1.40;;;;;;;;;;5010293;28;20521;-58
2023/04/28 06:23:25;;;;;;;4.93;1.30;;;;;;;;;;5008971;28;20694;-57
2023/04/28 06:25:51;;;;;;;4.28;1.30;;;;;;;;;;5009175;28;20095;-56
2023/04/28 06:28:18;;;;;;;7.97;1.50;;;;;;;;;;5009340;28;20077;-57
2023/04/28 06:30:45;;;;;;;3.78;1.10;;;;;;;;;;5023385;28;20052;-58
2023/04/28 06:33:12;;;;;;;8.20;1.13;;;;;;;;;;5008703;28;20527;-56
2023/04/28 06:35:38;;;;;;;3.95;1.23;;;;;;;;;;5010790;28;20128;-57
2023/04/28 06:38:06;;;;;;;4.55;1.10;;;;;;;;;;5026562;28;20034;-58
2023/04/28 06:40:36;;;;;;;5.65;1.00;;;;;;;;;;5014321;28;20061;-57
2023/04/28 06:43:04;;;;;;;3.28;1.02;;;;;;;;;;5018473;28;20042;-57
2023/04/28 06:45:31;;;;;;;2.45;0.90;;;;;;;;;;5013851;28;20041;-60
2023/04/28 06:47:57;;;;;;;4.13;1.02;;;;;;;;;;5017283;28;20060;-57
2023/04/28 06:50:24;;;;;;;5.45;1.15;;;;;;;;;;5012698;28;20410;-56
2023/04/28 06:52:51;;;;;;;4.68;1.00;;;;;;;;;;5016344;28;20053;-56
2023/04/28 06:55:18;;;;;;;3.53;0.95;;;;;;;;;;5015077;28;20038;-57
2023/04/28 06:57:45;;;;;;;3.97;1.20;;;;;;;;;;5026846;28;20046;-60
2023/04/28 07:00:12;;;;;;;3.60;1.00;;;;;;;;;;5013077;28;20141;-57
2023/04/28 07:02:38;;;;;;;3.58;1.00;;;;;;;;;;5010304;28;20133;-60
2023/04/28 07:05:05;;;;;;;4.40;1.08;;;;;;;;;;5011552;28;20112;-60
2023/04/28 07:07:32;;;;;;;4.70;1.02;;;;;;;;;;5010543;28;20037;-59
2023/04/28 07:09:59;;;;;;;5.18;1.10;;;;;;;;;;5026742;28;20768;-58
2023/04/28 07:12:27;;;;;;;3.65;1.30;;;;;;;;;;5011657;28;20068;-57
2023/04/28 07:14:54;;;;;;;8.35;1.17;;;;;;;;;;5013977;28;20038;-60
2023/04/28 07:17:21;;;;;;;8.40;1.35;;;;;;;;;;5010491;28;20441;-55
2023/04/28 07:19:49;;;;;;;5.38;1.17;;;;;;;;;;5011706;28;20041;-58
2023/04/28 07:22:16;;;;;;;3.75;1.10;;;;;;;;;;5011527;28;20034;-59
2023/04/28 07:24:44;;;;;;;3.50;1.10;;;;;;;;;;5012198;28;20100;-58
2023/04/28 07:27:11;;;;;;;4.25;1.25;;;;;;;;;;5012457;28;20034;-56
2023/04/28 07:29:38;;;;;;;3.75;0.98;;;;;;;;;;5011043;28;20419;-58
2023/04/28 07:32:07;;;;;;;2.90;1.00;;;;;;;;;;5011571;28;20073;-57
2023/04/28 07:34:37;;;;;;;6.22;1.50;;;;;;;;;;5011048;28;20137;-60
2023/04/28 07:37:07;;;;;;;6.15;1.40;;;;;;;;;;5028948;28;20046;-60
2023/04/28 07:39:34;;;;;;;7.60;1.42;;;;;;;;;;5006463;28;20045;-57
2023/04/28 07:42:01;;;;;;;5.20;1.23;;;;;;;;;;5011925;28;20087;-58
2023/04/28 07:44:28;;;;;;;5.22;1.00;;;;;;;;;;5007802;28;20107;-56
2023/04/28 07:46:55;;;;;;;3.67;1.30;;;;;;;;;;5015179;28;21837;-57
2023/04/28 07:49:22;;;;;;;7.20;1.23;;;;;;;;;;5008975;28;20143;-60
2023/04/28 07:51:52;;;;;;;5.03;1.42;;;;;;;;;;5010457;28;20044;-57
2023/04/28 07:54:19;;;;;;;10.23;1.70;;;;;;;;;;5011407;28;20032;-57
2023/04/28 07:56:45;;;;;;;6.28;1.45;;;;;;;;;;5010985;28;20072;-60
2023/04/28 07:59:12;;;;;;;4.68;1.20;;;;;;;;;;5028179;28;20045;-58
2023/04/28 08:01:41;;;;;;;5.60;1.40;;;;;;;;;;5012527;28;20093;-57
2023/04/28 08:04:08;;;;;;;3.90;1.17;;;;;;;;;;5011573;28;20038;-56
2023/04/28 08:06:35;;;;;;;4.15;1.60;;;;;;;;;;5011050;28;20116;-57
2023/04/28 08:09:02;;;;;;;3.33;1.20;;;;;;;;;;5010885;28;20042;-58
2023/04/28 08:11:29;;;;;;;4.53;1.42;;;;;;;;;;5010800;28;20045;-59
2023/04/28 08:14:00;;;;;;;5.45;1.40;;;;;;;;;;5011449;28;20045;-57
2023/04/28 08:16:27;;;;;;;4.55;1.50;;;;;;;;;;5010337;28;20051;-57
2023/04/28 08:18:53;;;;;;;6.13;1.80;;;;;;;;;;5010680;28;20042;-58
2023/04/28 08:21:20;;;;;;;8.45;1.88;;;;;;;;;;5010587;28;20030;-64
2023/04/28 08:23:47;;;;;;;9.73;1.80;;;;;;;;;;5011839;28;20038;-56
2023/04/28 08:26:13;;;;;;;5.43;1.70;;;;;;;;;;5008285;28;20046;-57
2023/04/28 08:28:40;;;;;;;5.32;1.25;;;;;;;;;;5009295;28;20510;-58
2023/04/28 08:31:07;;;;;;;8.27;1.55;;;;;;;;;;5010363;28;20037;-53
2023/04/28 08:33:33;;;;;;;7.60;1.42;;;;;;;;;;5024900;28;20067;-57
2023/04/28 08:36:00;;;;;;;14.02;1.80;;;;;;;;;;5025253;28;20045;-59
2023/04/28 08:38:27;;;;;;;4.90;1.42;;;;;;;;;;5012755;28;20482;-57
2023/04/28 08:40:54;;;;;;;7.32;1.15;;;;;;;;;;5009099;28;20077;-57
2023/04/28 08:43:20;;;;;;;4.75;1.25;;;;;;;;;;5008705;28;20976;-57
2023/04/28 08:45:48;;;;;;;7.07;1.27;;;;;;;;;;5006326;28;20411;-60
2023/04/28 08:48:22;;;;;;;5.97;1.60;;;;;;;;;;5006102;28;20483;-57
2023/04/28 08:50:52;;;;;;;10.27;1.80;;;;;;;;;;5005063;28;20050;-58
2023/04/28 08:53:25;;;;;;;9.13;1.70;;;;;;;;;;5007504;28;20100;-59
2023/04/28 08:55:56;;;;;;;9.30;1.33;;;;;;;;;;5007790;28;20067;-57
2023/04/28 08:58:27;;;;;;;12.07;1.67;;;;;;;;;;5007654;28;20044;-59
2023/04/28 09:00:54;;;;;;;12.43;1.60;;;;;;;;;;5005351;28;20152;-60
2023/04/28 09:03:21;;;;;;;8.55;1.77;;;;;;;;;;5005765;28;20417;-61
2023/04/28 09:05:47;;;;;;;12.60;1.90;;;;;;;;;;5014338;28;20184;-56
2023/04/28 09:08:16;;;;;;;13.50;1.80;;;;;;;;;;5007496;28;20038;-61
2023/04/28 09:10:43;;;;;;;10.02;1.88;;;;;;;;;;5005967;28;20046;-57
2023/04/28 09:13:10;;;;;;;11.98;1.85;;;;;;;;;;5008602;28;20037;-59
2023/04/28 09:15:44;;;;;;;13.70;2.20;;;;;;;;;;5006301;28;20589;-57
2023/04/28 09:18:14;;;;;;;11.95;1.58;;;;;;;;;;5008311;28;20449;-58
2023/04/28 09:20:41;;;;;;;6.35;1.30;;;;;;;;;;5005171;28;20121;-56
2023/04/28 09:23:16;;;;;;;12.82;1.80;;;;;;;;;;5006159;28;20375;-60
2023/04/28 09:26:02;;;;;;;12.10;1.80;;;;;;;;;;5006104;28;20038;-57
2023/04/28 09:28:29;;;;;;;16.92;1.77;;;;;;;;;;5005473;28;20033;-57
2023/04/28 09:30:56;;;;;;;8.48;1.42;;;;;;;;;;5006549;28;20392;-58
2023/04/28 09:33:22;;;;;;;17.25;1.80;;;;;;;;;;5006413;28;20143;-57
2023/04/28 09:35:49;;;;;;;15.15;1.70;;;;;;;;;;5007802;28;20686;-58
2023/04/28 09:38:16;;;;;;;6.95;1.13;;;;;;;;;;5003551;28;21777;-57
2023/04/28 09:40:53;;;;;;;7.63;1.20;;;;;;;;;;5005658;28;20124;-58
2023/04/28 09:43:27;;;;;;;2.90;0.98;;;;;;;;;;5009166;28;20073;-57
2023/04/28 09:45:55;;;;;;;7.72;1.40;;;;;;;;;;5010124;28;20513;-58
2023/04/28 09:48:48;;;;;;;5.85;1.15;;;;;;;;;;5007796;28;20046;-57
2023/04/28 09:51:20;;;;;;;5.30;1.10;;;;;;;;;;5004808;28;20104;-56
2023/04/28 09:53:47;;;;;;;9.32;1.30;;;;;;;;;;4984037;28;20064;-59
2023/04/28 09:56:14;;;;;;;6.68;1.23;;;;;;;;;;4987789;28;20050;-59
2023/04/28 09:58:40;;;;;;;4.30;1.20;;;;;;;;;;4986438;28;20989;-57
2023/04/28 10:01:12;;;;;;;6.50;1.33;;;;;;;;;;4987125;28;20042;-56
2023/04/28 10:03:39;;;;;;;10.60;1.20;;;;;;;;;;4986488;28;20038;-57
2023/04/28 10:06:07;;;;;;;6.28;1.08;;;;;;;;;;4987233;28;20053;-54
2023/04/28 10:08:34;;;;;;;6.70;1.20;;;;;;;;;;4987611;28;20503;-57
2023/04/28 10:11:01;;;;;;;5.13;0.98;;;;;;;;;;4987059;28;20119;-57
2023/04/28 10:13:29;;;;;;;4.70;1.27;;;;;;;;;;5002222;28;20042;-55
2023/04/28 10:15:57;;;;;;;5.72;1.10;;;;;;;;;;5006354;28;20084;-57
2023/04/28 10:18:24;;;;;;;6.30;1.05;;;;;;;;;;5007043;28;20041;-60
2023/04/28 10:20:53;;;;;;;9.23;1.10;;;;;;;;;;5007628;28;20038;-56
2023/04/28 10:23:38;;;;;;;9.05;1.30;;;;;;;;;;5020998;28;20158;-56
2023/04/28 10:26:09;;;;;;;4.28;1.20;;;;;;;;;;5006050;28;20096;-59
2023/04/28 10:28:36;;;;;;;5.90;1.25;;;;;;;;;;5003731;28;20037;-56
2023/04/28 10:31:13;;;;;;;5.57;1.10;;;;;;;;;;5009595;28;20068;-54
2023/04/28 10:33:40;;;;;;;9.52;1.42;;;;;;;;;;5007302;28;20045;-58
2023/04/28 10:36:07;;;;;;;5.82;1.00;;;;;;;;;;5007306;28;20038;-59
2023/04/28 10:38:34;;;;;;;5.45;1.35;;;;;;;;;;5006395;28;20029;-56
2023/04/28 10:41:02;;;;;;;4.78;1.00;;;;;;;;;;5005477;28;20524;-57
2023/04/28 10:43:36;;;;;;;5.13;1.10;;;;;;;;;;5006788;28;20041;-57
2023/04/28 10:46:07;;;;;;;5.68;1.33;;;;;;;;;;5007769;28;20076;-58
2023/04/28 10:48:35;;;;;;;4.63;1.00;;;;;;;;;;5007517;28;20375;-56
2023/04/28 10:51:06;;;;;;;5.25;1.38;;;;;;;;;;5009706;28;20049;-60
2023/04/28 10:53:45;;;;;;;6.00;1.10;;;;;;;;;;5008588;28;20045;-57
2023/04/28 10:56:14;;;;;;;7.78;1.48;;;;;;;;;;5021413;28;20037;-59
2023/04/28 10:58:42;;;;;;;6.68;1.10;;;;;;;;;;5006121;28;20036;-60
2023/04/28 11:01:23;;;;;;;5.20;1.40;;;;;;;;;;5020759;28;20073;-56
2023/04/28 11:03:53;;;;;;;4.63;1.33;;;;;;;;;;5005702;28;20156;-60
2023/04/28 11:06:31;;;;;;;6.82;1.15;;;;;;;;;;5006234;28;20133;-58
2023/04/28 11:09:01;;;;;;;7.25;1.00;;;;;;;;;;5005628;28;20175;-59
2023/04/28 11:11:28;;;;;;;4.00;1.30;;;;;;;;;;5005946;28;20415;-57
2023/04/28 11:14:15;;;;;;;12.05;1.45;;;;;;;;;;5020831;28;20068;-57
2023/04/28 11:16:55;;;;;;;6.13;1.40;;;;;;;;;;5006361;28;20057;-57
2023/04/28 11:19:25;;;;;;;9.38;1.60;;;;;;;;;;5006430;28;20498;-58
2023/04/28 11:21:56;;;;;;;5.22;1.20;;;;;;;;;;5007109;28;20664;-57
2023/04/28 11:24:27;;;;;;;10.00;1.70;;;;;;;;;;5009282;28;20072;-57
2023/04/28 11:26:55;;;;;;;9.88;1.90;;;;;;;;;;5010911;28;20494;-57
2023/04/28 11:29:34;;;;;;;8.02;1.98;;;;;;;;;;5018206;28;20180;-60
2023/04/28 11:32:04;;;;;;;12.82;2.20;;;;;;;;;;5026620;28;20046;-56
2023/04/28 11:34:31;;;;;;;11.48;1.98;;;;;;;;;;5025599;28;21812;-58
2023/04/28 11:36:58;;;;;;;10.27;1.73;;;;;;;;;;5025802;28;20037;-59
2023/04/28 11:39:29;;;;;;;10.05;1.90;;;;;;;;;;5010200;28;20037;-58
2023/04/28 11:41:57;;;;;;;17.33;2.13;;;;;;;;;;5010944;28;20050;-55
2023/04/28 11:44:24;;;;;;;8.98;1.75;;;;;;;;;;5008918;28;20055;-54
2023/04/28 11:46:56;;;;;;;8.45;1.48;;;;;;;;;;5009685;28;20046;-56
2023/04/28 11:49:29;;;;;;;10.13;1.60;;;;;;;;;;5011107;28;20582;-58
2023/04/28 11:52:06;;;;;;;13.00;1.60;;;;;;;;;;5010487;28;20049;-58
2023/04/28 11:54:33;;;;;;;5.63;1.35;;;;;;;;;;5010141;28;20050;-57
2023/04/28 11:57:02;;;;;;;15.60;2.00;;;;;;;;;;5009290;28;21947;-58
2023/04/28 11:59:31;;;;;;;13.85;1.73;;;;;;;;;;5008725;28;20600;-58
2023/04/28 12:01:58;;;;;;;9.60;1.33;;;;;;;;;;5026135;28;20046;-58
2023/04/28 12:04:29;;;;;;;13.50;2.05;;;;;;;;;;5010522;28;20061;-59
2023/04/28 12:07:03;;;;;;;7.63;1.50;;;;;;;;;;5011117;28;20052;-57
2023/04/28 12:09:30;;;;;;;10.13;1.60;;;;;;;;;;5010643;28;20064;-58
2023/04/28 12:12:06;;;;;;;4.68;1.40;;;;;;;;;;5010680;28;20045;-59
2023/04/28 12:14:53;;;;;;;6.40;1.30;;;;;;;;;;5024807;28;20042;-61
2023/04/28 12:17:26;;;;;;;6.72;1.50;;;;;;;;;;5024145;28;20054;-55
2023/04/28 12:19:54;;;;;;;6.97;1.60;;;;;;;;;;5010530;28;20096;-56
2023/04/28 12:22:20;;;;;;;8.65;1.45;;;;;;;;;;5008060;28;20051;-59
2023/04/28 12:25:02;;;;;;;11.10;1.50;;;;;;;;;;5009961;28;20097;-56
2023/04/28 12:27:30;;;;;;;5.28;1.20;;;;;;;;;;5010650;28;20046;-60
2023/04/28 12:29:57;;;;;;;9.40;1.58;;;;;;;;;;5025583;28;20430;-57
2023/04/28 12:32:39;;;;;;;5.45;1.08;;;;;;;;;;5025113;28;20030;-58
2023/04/28 12:35:06;;;;;;;5.60;1.05;;;;;;;;;;5025636;28;20053;-57
2023/04/28 12:37:33;;;;;;;5.90;1.23;;;;;;;;;;5008764;28;20494;-58
2023/04/28 12:40:03;;;;;;;6.95;1.27;;;;;;;;;;5009558;28;20049;-59
2023/04/28 12:42:30;;;;;;;6.70;1.33;;;;;;;;;;5009760;28;20085;-59
2023/04/28 12:44:57;;;;;;;7.35;1.30;;;;;;;;;;5010069;28;20052;-59
2023/04/28 12:47:24;;;;;;;5.70;1.20;;;;;;;;;;5021081;28;20097;-63
2023/04/28 12:49:52;;;;;;;8.52;1.27;;;;;;;;;;5009178;28;20054;-63
2023/04/28 12:52:22;;;;;;;4.18;1.33;;;;;;;;;;5007039;28;20093;-58
2023/04/28 12:54:50;;;;;;;6.50;1.02;;;;;;;;;;5007528;28;20136;-59
2023/04/28 12:57:18;;;;;;;6.25;1.27;;;;;;;;;;5005715;28;20046;-64
2023/04/28 12:59:46;;;;;;;4.47;1.20;;;;;;;;;;5023691;28;20109;-59
2023/04/28 13:02:16;;;;;;;4.30;1.15;;;;;;;;;;5009214;28;20060;-60
2023/04/28 13:04:44;;;;;;;6.07;1.38;;;;;;;;;;5007755;28;20049;-66
2023/04/28 13:07:14;;;;;;;6.30;1.23;;;;;;;;;;5009745;28;20042;-61
2023/04/28 13:09:45;;;;;;;5.70;1.38;;;;;;;;;;5007362;28;20056;-60
2023/04/28 13:12:12;;;;;;;6.28;1.23;;;;;;;;;;5011026;28;20694;-59
2023/04/28 13:14:39;;;;;;;9.70;1.60;;;;;;;;;;5009239;28;20073;-57
2023/04/28 13:17:06;;;;;;;11.05;1.60;;;;;;;;;;5008523;28;20068;-59
2023/04/28 13:19:33;;;;;;;6.28;1.40;;;;;;;;;;5007441;28;20072;-60
2023/04/28 13:22:01;;;;;;;9.50;1.38;;;;;;;;;;5009147;28;20042;-57
2023/04/28 13:24:28;;;;;;;7.57;1.52;;;;;;;;;;5021482;28;20042;-61
2023/04/28 13:26:55;;;;;;;5.63;1.10;;;;;;;;;;5007958;28;20770;-58
2023/04/28 13:29:22;;;;;;;23.10;2.67;;;;;;;;;;5007335;28;20092;-57
2023/04/28 13:31:48;;;;;;;8.77;1.35;;;;;;;;;;5007181;28;20525;-60
2023/04/28 13:34:16;;;;;;;5.05;1.30;;;;;;;;;;5008570;28;20046;-58
2023/04/28 13:36:44;;;;;;;5.35;1.20;;;;;;;;;;5006113;28;20048;-57
2023/04/28 13:39:13;;;;;;;8.60;1.27;;;;;;;;;;5023237;28;20036;-59
2023/04/28 13:41:40;;;;;;;6.78;1.27;;;;;;;;;;5021627;28;20085;-58
2023/04/28 13:44:06;;;;;;;4.70;1.00;;;;;;;;;;5009499;28;20053;-63
2023/04/28 13:46:33;;;;;;;9.32;1.60;;;;;;;;;;5006869;28;20049;-64
2023/04/28 13:48:59;;;;;;;5.97;0.98;;;;;;;;;;5021251;28;20430;-58
2023/04/28 13:51:27;;;;;;;11.13;1.35;;;;;;;;;;5007828;28;20033;-58
2023/04/28 13:53:54;;;;;;;4.07;1.20;;;;;;;;;;5009151;28;20219;-57
2023/04/28 13:56:20;;;;;;;6.10;1.52;;;;;;;;;;5008000;28;20033;-58
2023/04/28 13:58:47;;;;;;;9.00;1.60;;;;;;;;;;5006861;28;20052;-60
2023/04/28 14:01:14;;;;;;;6.50;1.45;;;;;;;;;;5008463;28;20065;-58
2023/04/28 14:03:41;;;;;;;8.38;1.42;;;;;;;;;;5008502;28;20038;-58
2023/04/28 14:06:08;;;;;;;13.77;1.90;;;;;;;;;;5008050;28;20030;-58
2023/04/28 14:08:35;;;;;;;5.03;1.75;;;;;;;;;;5007062;28;20041;-58
2023/04/28 14:11:02;;;;;;;7.60;1.10;;;;;;;;;;5006597;28;20034;-58
2023/04/28 14:13:29;;;;;;;4.65;1.10;;;;;;;;;;5021779;28;20057;-57
2023/04/28 14:15:56;;;;;;;5.82;1.20;;;;;;;;;;5007484;28;20072;-57
2023/04/28 14:18:23;;;;;;;6.53;1.10;;;;;;;;;;5006240;28;20040;-60
2023/04/28 14:20:50;;;;;;;6.35;1.17;;;;;;;;;;5020308;28;20073;-58
2023/04/28 14:23:17;;;;;;;8.00;1.10;;;;;;;;;;5006615;28;20128;-58
2023/04/28 14:25:44;;;;;;;6.43;1.00;;;;;;;;;;5008939;28;20033;-59
2023/04/28 14:28:11;;;;;;;8.50;1.25;;;;;;;;;;5006723;28;21693;-58
2023/04/28 14:30:37;;;;;;;4.88;1.00;;;;;;;;;;5013694;28;20050;-58
2023/04/28 14:33:04;;;;;;;7.03;1.08;;;;;;;;;;5019770;28;20197;-58
2023/04/28 14:35:31;;;;;;;6.25;0.98;;;;;;;;;;5019473;28;20040;-58
2023/04/28 14:37:57;;;;;;;8.55;1.17;;;;;;;;;;5006600;28;20144;-57
2023/04/28 14:40:24;;;;;;;6.38;1.02;;;;;;;;;;5007217;28;20241;-57
2023/04/28 14:42:51;;;;;;;6.93;1.17;;;;;;;;;;5006350;28;20267;-57
2023/04/28 14:45:18;;;;;;;7.80;1.10;;;;;;;;;;5006868;28;20048;-56